Aviation Digital Data Service (ADDS)

Output produced by METARs form (2129 UTC 21 May 2022)
found at http://www.aviationweather.gov/metar/data/
 
TAF TQPF 211700Z 2118/2218 10013KT 9999 SCT020